sensor_id;sensor_type;location;lat;lon;timestamp;temperature;humidity
80579;SHT31;69939;52.402;6.608;2023-12-07T00:00:49;0.70;99.99
80579;SHT31;69939;52.402;6.608;2023-12-07T00:03:25;0.75;99.99
80579;SHT31;69939;52.402;6.608;2023-12-07T00:05:55;0.71;99.99
80579;SHT31;69939;52.402;6.608;2023-12-07T00:08:25;0.68;99.99
80579;SHT31;69939;52.402;6.608;2023-12-07T00:11:00;0.68;99.99
80579;SHT31;69939;52.402;6.608;2023-12-07T00:13:30;0.68;99.99
80579;SHT31;69939;52.402;6.608;2023-12-07T00:16:01;0.64;99.99
80579;SHT31;69939;52.402;6.608;2023-12-07T00:18:30;0.57;99.99
80579;SHT31;69939;52.402;6.608;2023-12-07T00:21:07;0.50;99.99
80579;SHT31;69939;52.402;6.608;2023-12-07T00:23:37;0.39;99.99
80579;SHT31;69939;52.402;6.608;2023-12-07T00:26:08;0.25;99.99
80579;SHT31;69939;52.402;6.608;2023-12-07T00:28:38;0.13;99.99
80579;SHT31;69939;52.402;6.608;2023-12-07T00:31:07;0.12;99.99
80579;SHT31;69939;52.402;6.608;2023-12-07T00:33:38;0.16;99.99
80579;SHT31;69939;52.402;6.608;2023-12-07T00:36:11;0.10;99.99
80579;SHT31;69939;52.402;6.608;2023-12-07T00:38:42;0.05;99.99
80579;SHT31;69939;52.402;6.608;2023-12-07T00:41:12;0.13;99.99
80579;SHT31;69939;52.402;6.608;2023-12-07T00:43:41;0.30;99.99
80579;SHT31;69939;52.402;6.608;2023-12-07T00:46:11;0.36;99.99
80579;SHT31;69939;52.402;6.608;2023-12-07T00:48:40;0.37;99.99
80579;SHT31;69939;52.402;6.608;2023-12-07T00:51:14;0.47;99.99
80579;SHT31;69939;52.402;6.608;2023-12-07T00:53:45;0.54;99.99
80579;SHT31;69939;52.402;6.608;2023-12-07T00:56:14;0.60;99.99
80579;SHT31;69939;52.402;6.608;2023-12-07T00:58:50;0.67;99.99
80579;SHT31;69939;52.402;6.608;2023-12-07T01:01:20;0.68;99.99
80579;SHT31;69939;52.402;6.608;2023-12-07T01:03:49;0.63;99.99
80579;SHT31;69939;52.402;6.608;2023-12-07T01:06:20;0.61;99.99
80579;SHT31;69939;52.402;6.608;2023-12-07T01:08:49;0.64;99.99
80579;SHT31;69939;52.402;6.608;2023-12-07T01:11:19;0.58;99.99
80579;SHT31;69939;52.402;6.608;2023-12-07T01:13:54;0.63;99.99
80579;SHT31;69939;52.402;6.608;2023-12-07T01:16:24;0.63;99.99
80579;SHT31;69939;52.402;6.608;2023-12-07T01:18:55;0.64;99.99
80579;SHT31;69939;52.402;6.608;2023-12-07T01:21:26;0.73;99.99
80579;SHT31;69939;52.402;6.608;2023-12-07T01:23:56;0.71;99.99
80579;SHT31;69939;52.402;6.608;2023-12-07T01:26:26;0.70;99.99
80579;SHT31;69939;52.402;6.608;2023-12-07T01:29:00;0.78;99.99
80579;SHT31;69939;52.402;6.608;2023-12-07T01:31:30;0.82;99.99
80579;SHT31;69939;52.402;6.608;2023-12-07T01:34:00;0.89;99.99
80579;SHT31;69939;52.402;6.608;2023-12-07T01:36:29;0.89;99.99
80579;SHT31;69939;52.402;6.608;2023-12-07T01:38:58;0.92;99.99
80579;SHT31;69939;52.402;6.608;2023-12-07T01:41:28;0.91;99.99
80579;SHT31;69939;52.402;6.608;2023-12-07T01:44:02;0.89;99.99
80579;SHT31;69939;52.402;6.608;2023-12-07T01:46:38;0.94;99.99
80579;SHT31;69939;52.402;6.608;2023-12-07T01:49:08;0.89;99.99
80579;SHT31;69939;52.402;6.608;2023-12-07T01:51:38;0.89;99.99
80579;SHT31;69939;52.402;6.608;2023-12-07T01:54:09;0.92;99.99
80579;SHT31;69939;52.402;6.608;2023-12-07T01:56:38;1.02;99.99
80579;SHT31;69939;52.402;6.608;2023-12-07T01:59:11;1.05;99.99
80579;SHT31;69939;52.402;6.608;2023-12-07T02:01:43;1.02;99.99
80579;SHT31;69939;52.402;6.608;2023-12-07T02:04:13;1.02;99.99
80579;SHT31;69939;52.402;6.608;2023-12-07T02:06:44;1.01;99.99
80579;SHT31;69939;52.402;6.608;2023-12-07T02:09:14;0.98;99.99
80579;SHT31;69939;52.402;6.608;2023-12-07T02:11:44;0.95;99.99
80579;SHT31;69939;52.402;6.608;2023-12-07T02:14:14;0.95;99.99
80579;SHT31;69939;52.402;6.608;2023-12-07T02:16:50;0.98;99.99
80579;SHT31;69939;52.402;6.608;2023-12-07T02:19:47;0.92;99.99
80579;SHT31;69939;52.402;6.608;2023-12-07T02:22:27;0.87;99.99
80579;SHT31;69939;52.402;6.608;2023-12-07T02:25:06;0.82;99.99
80579;SHT31;69939;52.402;6.608;2023-12-07T02:27:41;0.77;99.99
80579;SHT31;69939;52.402;6.608;2023-12-07T02:30:14;0.73;99.99
80579;SHT31;69939;52.402;6.608;2023-12-07T02:32:45;0.73;99.99
80579;SHT31;69939;52.402;6.608;2023-12-07T02:35:15;0.68;99.99
80579;SHT31;69939;52.402;6.608;2023-12-07T02:37:48;0.65;99.99
80579;SHT31;69939;52.402;6.608;2023-12-07T02:40:26;0.64;99.99
80579;SHT31;69939;52.402;6.608;2023-12-07T02:42:58;0.64;99.99
80579;SHT31;69939;52.402;6.608;2023-12-07T02:45:30;0.61;99.99
80579;SHT31;69939;52.402;6.608;2023-12-07T02:48:03;0.58;99.99
80579;SHT31;69939;52.402;6.608;2023-12-07T02:50:33;0.52;99.99
80579;SHT31;69939;52.402;6.608;2023-12-07T02:53:03;0.44;99.99
80579;SHT31;69939;52.402;6.608;2023-12-07T02:55:35;0.40;99.99
80579;SHT31;69939;52.402;6.608;2023-12-07T02:58:10;0.33;99.99
80579;SHT31;69939;52.402;6.608;2023-12-07T03:00:40;0.26;99.99
80579;SHT31;69939;52.402;6.608;2023-12-07T03:03:10;0.16;99.99
80579;SHT31;69939;52.402;6.608;2023-12-07T03:05:39;0.10;99.99
80579;SHT31;69939;52.402;6.608;2023-12-07T03:08:10;0.06;99.99
80579;SHT31;69939;52.402;6.608;2023-12-07T03:10:39;0.01;99.99
80579;SHT31;69939;52.402;6.608;2023-12-07T03:13:15;-0.06;99.99
80579;SHT31;69939;52.402;6.608;2023-12-07T03:15:47;-0.11;99.99
80579;SHT31;69939;52.402;6.608;2023-12-07T03:18:20;-0.26;99.99
80579;SHT31;69939;52.402;6.608;2023-12-07T03:20:50;-0.36;99.99
80579;SHT31;69939;52.402;6.608;2023-12-07T03:23:19;-0.43;99.99
80579;SHT31;69939;52.402;6.608;2023-12-07T03:25:49;-0.53;99.99
80579;SHT31;69939;52.402;6.608;2023-12-07T03:28:21;-0.66;99.99
80579;SHT31;69939;52.402;6.608;2023-12-07T03:30:52;-0.69;99.99
80579;SHT31;69939;52.402;6.608;2023-12-07T03:33:22;-0.70;99.99
80579;SHT31;69939;52.402;6.608;2023-12-07T03:35:51;-0.73;99.99
80579;SHT31;69939;52.402;6.608;2023-12-07T03:38:21;-0.76;99.99
80579;SHT31;69939;52.402;6.608;2023-12-07T03:40:50;-0.66;99.99
80579;SHT31;69939;52.402;6.608;2023-12-07T03:43:22;-0.43;99.99
80579;SHT31;69939;52.402;6.608;2023-12-07T03:45:52;-0.32;99.99
80579;SHT31;69939;52.402;6.608;2023-12-07T03:48:21;-0.23;99.99
80579;SHT31;69939;52.402;6.608;2023-12-07T03:50:51;-0.29;99.99
80579;SHT31;69939;52.402;6.608;2023-12-07T03:53:20;-0.28;99.99
80579;SHT31;69939;52.402;6.608;2023-12-07T03:55:50;-0.26;99.99
80579;SHT31;69939;52.402;6.608;2023-12-07T03:58:22;-0.29;99.99
80579;SHT31;69939;52.402;6.608;2023-12-07T04:00:51;-0.32;99.99
80579;SHT31;69939;52.402;6.608;2023-12-07T04:03:25;-0.28;99.99
80579;SHT31;69939;52.402;6.608;2023-12-07T04:05:54;-0.25;99.99
80579;SHT31;69939;52.402;6.608;2023-12-07T04:08:25;-0.19;99.99
80579;SHT31;69939;52.402;6.608;2023-12-07T04:10:57;-0.13;99.99
80579;SHT31;69939;52.402;6.608;2023-12-07T04:13:29;-0.13;99.99
80579;SHT31;69939;52.402;6.608;2023-12-07T04:16:00;-0.09;99.99
80579;SHT31;69939;52.402;6.608;2023-12-07T04:18:30;-0.11;99.99
80579;SHT31;69939;52.402;6.608;2023-12-07T04:21:02;-0.08;99.99
80579;SHT31;69939;52.402;6.608;2023-12-07T04:23:32;-0.12;99.99
80579;SHT31;69939;52.402;6.608;2023-12-07T04:26:02;-0.16;99.99
80579;SHT31;69939;52.402;6.608;2023-12-07T04:28:35;-0.22;99.99
80579;SHT31;69939;52.402;6.608;2023-12-07T04:31:10;-0.29;99.99
80579;SHT31;69939;52.402;6.608;2023-12-07T04:33:39;-0.29;99.99
80579;SHT31;69939;52.402;6.608;2023-12-07T04:36:09;-0.33;99.99
80579;SHT31;69939;52.402;6.608;2023-12-07T04:38:39;-0.40;99.99
80579;SHT31;69939;52.402;6.608;2023-12-07T04:41:09;-0.44;99.99
80579;SHT31;69939;52.402;6.608;2023-12-07T04:43:41;-0.49;99.99
80579;SHT31;69939;52.402;6.608;2023-12-07T04:46:13;-0.56;99.99
80579;SHT31;69939;52.402;6.608;2023-12-07T04:48:43;-0.56;99.99
80579;SHT31;69939;52.402;6.608;2023-12-07T04:51:12;-0.60;99.99
80579;SHT31;69939;52.402;6.608;2023-12-07T04:53:42;-0.61;99.99
80579;SHT31;69939;52.402;6.608;2023-12-07T04:56:14;-0.64;99.99
80579;SHT31;69939;52.402;6.608;2023-12-07T04:58:44;-0.63;99.99
80579;SHT31;69939;52.402;6.608;2023-12-07T05:01:17;-0.70;99.99
80579;SHT31;69939;52.402;6.608;2023-12-07T05:03:47;-0.74;99.99
80579;SHT31;69939;52.402;6.608;2023-12-07T05:06:20;-0.79;99.99
80579;SHT31;69939;52.402;6.608;2023-12-07T05:08:52;-0.77;99.99
80579;SHT31;69939;52.402;6.608;2023-12-07T05:11:21;-0.81;99.99
80579;SHT31;69939;52.402;6.608;2023-12-07T05:14:06;-0.80;99.99
80579;SHT31;69939;52.402;6.608;2023-12-07T05:16:45;-0.79;99.99
80579;SHT31;69939;52.402;6.608;2023-12-07T05:19:21;-0.80;99.99
80579;SHT31;69939;52.402;6.608;2023-12-07T05:21:52;-0.85;99.99
80579;SHT31;69939;52.402;6.608;2023-12-07T05:24:22;-0.91;99.99
80579;SHT31;69939;52.402;6.608;2023-12-07T05:26:54;-0.95;99.99
80579;SHT31;69939;52.402;6.608;2023-12-07T05:29:24;-0.98;99.99
80579;SHT31;69939;52.402;6.608;2023-12-07T05:31:59;-1.02;99.99
80579;SHT31;69939;52.402;6.608;2023-12-07T05:34:31;-1.07;99.99
80579;SHT31;69939;52.402;6.608;2023-12-07T05:37:01;-1.07;99.99
80579;SHT31;69939;52.402;6.608;2023-12-07T05:39:31;-1.12;99.99
80579;SHT31;69939;52.402;6.608;2023-12-07T05:42:03;-1.11;99.99
80579;SHT31;69939;52.402;6.608;2023-12-07T05:44:35;-1.13;99.99
80579;SHT31;69939;52.402;6.608;2023-12-07T05:47:09;-1.07;99.99
80579;SHT31;69939;52.402;6.608;2023-12-07T05:49:40;-0.95;99.99
80579;SHT31;69939;52.402;6.608;2023-12-07T05:52:10;-0.83;99.99
80579;SHT31;69939;52.402;6.608;2023-12-07T05:54:41;-0.71;99.99
80579;SHT31;69939;52.402;6.608;2023-12-07T05:57:16;-0.67;99.99
80579;SHT31;69939;52.402;6.608;2023-12-07T05:59:57;-0.66;99.99
80579;SHT31;69939;52.402;6.608;2023-12-07T06:02:32;-0.61;99.99
80579;SHT31;69939;52.402;6.608;2023-12-07T06:05:04;-0.59;99.99
80579;SHT31;69939;52.402;6.608;2023-12-07T06:07:35;-0.57;99.99
80579;SHT31;69939;52.402;6.608;2023-12-07T06:10:08;-0.60;99.99
80579;SHT31;69939;52.402;6.608;2023-12-07T06:12:38;-0.54;99.99
80579;SHT31;69939;52.402;6.608;2023-12-07T06:15:14;-0.52;99.99
80579;SHT31;69939;52.402;6.608;2023-12-07T06:17:45;-0.54;99.99
80579;SHT31;69939;52.402;6.608;2023-12-07T06:20:16;-0.57;99.99
80579;SHT31;69939;52.402;6.608;2023-12-07T06:22:54;-0.56;99.99
80579;SHT31;69939;52.402;6.608;2023-12-07T06:25:26;-0.57;99.99
80579;SHT31;69939;52.402;6.608;2023-12-07T06:28:03;-0.57;99.99
80579;SHT31;69939;52.402;6.608;2023-12-07T06:30:33;-0.59;99.99
80579;SHT31;69939;52.402;6.608;2023-12-07T06:33:03;-0.57;99.99
80579;SHT31;69939;52.402;6.608;2023-12-07T06:35:33;-0.59;99.99
80579;SHT31;69939;52.402;6.608;2023-12-07T06:38:03;-0.57;99.99
80579;SHT31;69939;52.402;6.608;2023-12-07T06:40:32;-0.63;99.99
80579;SHT31;69939;52.402;6.608;2023-12-07T06:43:05;-0.66;99.99
80579;SHT31;69939;52.402;6.608;2023-12-07T06:45:36;-0.71;99.99
80579;SHT31;69939;52.402;6.608;2023-12-07T06:48:06;-0.71;99.99
80579;SHT31;69939;52.402;6.608;2023-12-07T06:50:35;-0.69;99.99
80579;SHT31;69939;52.402;6.608;2023-12-07T06:53:06;-0.70;99.99
80579;SHT31;69939;52.402;6.608;2023-12-07T06:55:39;-0.77;99.99
80579;SHT31;69939;52.402;6.608;2023-12-07T06:58:11;-0.81;99.99
80579;SHT31;69939;52.402;6.608;2023-12-07T07:00:41;-0.85;99.99
80579;SHT31;69939;52.402;6.608;2023-12-07T07:03:10;-0.84;99.99
80579;SHT31;69939;52.402;6.608;2023-12-07T07:05:40;-0.83;99.99
80579;SHT31;69939;52.402;6.608;2023-12-07T07:08:09;-0.74;99.99
80579;SHT31;69939;52.402;6.608;2023-12-07T07:10:39;-0.76;99.99
80579;SHT31;69939;52.402;6.608;2023-12-07T07:13:11;-0.76;99.99
80579;SHT31;69939;52.402;6.608;2023-12-07T07:15:42;-0.80;99.99
80579;SHT31;69939;52.402;6.608;2023-12-07T07:18:12;-0.71;99.99
80579;SHT31;69939;52.402;6.608;2023-12-07T07:20:41;-0.70;99.99
80579;SHT31;69939;52.402;6.608;2023-12-07T07:23:11;-0.63;99.99
80579;SHT31;69939;52.402;6.608;2023-12-07T07:25:41;-0.60;99.99
80579;SHT31;69939;52.402;6.608;2023-12-07T07:28:13;-0.60;99.99
80579;SHT31;69939;52.402;6.608;2023-12-07T07:30:42;-0.54;99.99
80579;SHT31;69939;52.402;6.608;2023-12-07T07:33:12;-0.56;99.99
80579;SHT31;69939;52.402;6.608;2023-12-07T07:35:41;-0.48;99.99
80579;SHT31;69939;52.402;6.608;2023-12-07T07:38:10;-0.44;99.99
80579;SHT31;69939;52.402;6.608;2023-12-07T07:40:40;-0.46;99.99
80579;SHT31;69939;52.402;6.608;2023-12-07T07:43:15;-0.43;99.99
80579;SHT31;69939;52.402;6.608;2023-12-07T07:45:45;-0.40;99.99
80579;SHT31;69939;52.402;6.608;2023-12-07T07:48:14;-0.34;99.99
80579;SHT31;69939;52.402;6.608;2023-12-07T07:50:45;-0.29;99.99
80579;SHT31;69939;52.402;6.608;2023-12-07T07:53:14;-0.26;99.99
80579;SHT31;69939;52.402;6.608;2023-12-07T07:55:45;-0.29;99.99
80579;SHT31;69939;52.402;6.608;2023-12-07T07:58:17;-0.25;99.99
80579;SHT31;69939;52.402;6.608;2023-12-07T08:00:47;-0.22;99.99
80579;SHT31;69939;52.402;6.608;2023-12-07T08:03:17;-0.21;99.99
80579;SHT31;69939;52.402;6.608;2023-12-07T08:05:47;-0.15;99.99
80579;SHT31;69939;52.402;6.608;2023-12-07T08:08:16;-0.11;99.99
80579;SHT31;69939;52.402;6.608;2023-12-07T08:10:46;-0.11;99.99
80579;SHT31;69939;52.402;6.608;2023-12-07T08:13:18;-0.19;99.99
80579;SHT31;69939;52.402;6.608;2023-12-07T08:15:47;-0.22;99.99
80579;SHT31;69939;52.402;6.608;2023-12-07T08:18:17;-0.22;99.99
80579;SHT31;69939;52.402;6.608;2023-12-07T08:20:46;-0.16;99.99
80579;SHT31;69939;52.402;6.608;2023-12-07T08:23:16;-0.09;99.99
80579;SHT31;69939;52.402;6.608;2023-12-07T08:25:45;-0.06;99.99
80579;SHT31;69939;52.402;6.608;2023-12-07T08:28:14;-0.05;99.99
80579;SHT31;69939;52.402;6.608;2023-12-07T08:30:52;0.02;99.99
80579;SHT31;69939;52.402;6.608;2023-12-07T08:33:22;0.02;99.99
80579;SHT31;69939;52.402;6.608;2023-12-07T08:35:51;0.06;99.99
80579;SHT31;69939;52.402;6.608;2023-12-07T08:38:22;0.09;99.99
80579;SHT31;69939;52.402;6.608;2023-12-07T08:40:52;0.13;99.99
80579;SHT31;69939;52.402;6.608;2023-12-07T08:43:21;0.17;99.99
80579;SHT31;69939;52.402;6.608;2023-12-07T08:45:54;0.19;99.99
80579;SHT31;69939;52.402;6.608;2023-12-07T08:48:23;0.22;99.99
80579;SHT31;69939;52.402;6.608;2023-12-07T08:50:52;0.22;99.99
80579;SHT31;69939;52.402;6.608;2023-12-07T08:53:30;0.23;99.99
80579;SHT31;69939;52.402;6.608;2023-12-07T08:55:59;0.23;99.99
80579;SHT31;69939;52.402;6.608;2023-12-07T08:58:28;0.25;99.99
80579;SHT31;69939;52.402;6.608;2023-12-07T09:00:58;0.32;99.99
80579;SHT31;69939;52.402;6.608;2023-12-07T09:03:27;0.37;99.99
80579;SHT31;69939;52.402;6.608;2023-12-07T09:05:57;0.46;99.99
80579;SHT31;69939;52.402;6.608;2023-12-07T09:08:29;0.42;99.99
80579;SHT31;69939;52.402;6.608;2023-12-07T09:11:04;0.50;99.99
80579;SHT31;69939;52.402;6.608;2023-12-07T09:13:34;0.52;99.99
80579;SHT31;69939;52.402;6.608;2023-12-07T09:16:05;0.57;99.99
80579;SHT31;69939;52.402;6.608;2023-12-07T09:18:35;0.52;99.99
80579;SHT31;69939;52.402;6.608;2023-12-07T09:21:04;0.52;99.99
80579;SHT31;69939;52.402;6.608;2023-12-07T09:23:40;0.52;99.99
80579;SHT31;69939;52.402;6.608;2023-12-07T09:26:10;0.50;99.99
80579;SHT31;69939;52.402;6.608;2023-12-07T09:28:39;0.46;99.99
80579;SHT31;69939;52.402;6.608;2023-12-07T09:31:09;0.42;99.99
80579;SHT31;69939;52.402;6.608;2023-12-07T09:33:38;0.44;99.99
80579;SHT31;69939;52.402;6.608;2023-12-07T09:36:08;0.50;99.99
80579;SHT31;69939;52.402;6.608;2023-12-07T09:38:42;0.43;99.99
80579;SHT31;69939;52.402;6.608;2023-12-07T09:41:11;0.46;99.99
80579;SHT31;69939;52.402;6.608;2023-12-07T09:43:41;0.47;99.99
80579;SHT31;69939;52.402;6.608;2023-12-07T09:46:11;0.52;99.99
80579;SHT31;69939;52.402;6.608;2023-12-07T09:48:43;0.52;99.99
80579;SHT31;69939;52.402;6.608;2023-12-07T09:51:15;0.56;99.99
80579;SHT31;69939;52.402;6.608;2023-12-07T09:53:48;0.61;99.99
80579;SHT31;69939;52.402;6.608;2023-12-07T09:56:21;0.71;99.99
80579;SHT31;69939;52.402;6.608;2023-12-07T09:58:51;0.71;99.99
80579;SHT31;69939;52.402;6.608;2023-12-07T10:01:20;0.78;99.99
80579;SHT31;69939;52.402;6.608;2023-12-07T10:03:49;0.88;99.99
80579;SHT31;69939;52.402;6.608;2023-12-07T10:06:19;0.88;99.99
80579;SHT31;69939;52.402;6.608;2023-12-07T10:09:03;0.75;99.99
80579;SHT31;69939;52.402;6.608;2023-12-07T10:11:40;0.85;99.99
80579;SHT31;69939;52.402;6.608;2023-12-07T10:14:10;0.95;99.99
80579;SHT31;69939;52.402;6.608;2023-12-07T10:16:52;1.09;99.99
80579;SHT31;69939;52.402;6.608;2023-12-07T10:19:23;1.13;99.99
80579;SHT31;69939;52.402;6.608;2023-12-07T10:21:53;1.23;99.99
80579;SHT31;69939;52.402;6.608;2023-12-07T10:24:25;1.28;99.99
80579;SHT31;69939;52.402;6.608;2023-12-07T10:26:59;1.29;99.99
80579;SHT31;69939;52.402;6.608;2023-12-07T10:29:29;1.33;99.99
80579;SHT31;69939;52.402;6.608;2023-12-07T10:32:00;1.33;99.99
80579;SHT31;69939;52.402;6.608;2023-12-07T10:34:30;1.30;99.99
80579;SHT31;69939;52.402;6.608;2023-12-07T10:37:01;1.25;99.99
80579;SHT31;69939;52.402;6.608;2023-12-07T10:39:31;1.29;99.99
80579;SHT31;69939;52.402;6.608;2023-12-07T10:42:09;1.30;99.99
80579;SHT31;69939;52.402;6.608;2023-12-07T10:44:41;1.23;99.99
80579;SHT31;69939;52.402;6.608;2023-12-07T10:47:13;1.28;99.99
80579;SHT31;69939;52.402;6.608;2023-12-07T10:49:46;1.44;99.99
80579;SHT31;69939;52.402;6.608;2023-12-07T10:52:27;1.54;99.99
80579;SHT31;69939;52.402;6.608;2023-12-07T10:55:07;1.57;99.99
80579;SHT31;69939;52.402;6.608;2023-12-07T10:57:42;1.61;99.99
80579;SHT31;69939;52.402;6.608;2023-12-07T11:00:14;1.73;99.99
80579;SHT31;69939;52.402;6.608;2023-12-07T11:02:45;1.73;99.99
80579;SHT31;69939;52.402;6.608;2023-12-07T11:05:15;1.74;99.99
80579;SHT31;69939;52.402;6.608;2023-12-07T11:07:52;1.73;99.99
80579;SHT31;69939;52.402;6.608;2023-12-07T11:10:33;1.77;99.99
80579;SHT31;69939;52.402;6.608;2023-12-07T11:13:11;1.71;99.99
80579;SHT31;69939;52.402;6.608;2023-12-07T11:15:46;1.84;99.99
80579;SHT31;69939;52.402;6.608;2023-12-07T11:18:15;1.94;99.99
80579;SHT31;69939;52.402;6.608;2023-12-07T11:20:45;2.02;99.99
80579;SHT31;69939;52.402;6.608;2023-12-07T11:23:20;2.02;99.99
80579;SHT31;69939;52.402;6.608;2023-12-07T11:25:51;2.08;99.99
80579;SHT31;69939;52.402;6.608;2023-12-07T11:28:34;2.08;99.99
80579;SHT31;69939;52.402;6.608;2023-12-07T11:31:10;2.14;99.99
80579;SHT31;69939;52.402;6.608;2023-12-07T11:33:41;2.25;99.99
80579;SHT31;69939;52.402;6.608;2023-12-07T11:36:11;2.28;99.99
80579;SHT31;69939;52.402;6.608;2023-12-07T11:39:15;2.29;99.99
80579;SHT31;69939;52.402;6.608;2023-12-07T11:41:51;2.15;99.99
80579;SHT31;69939;52.402;6.608;2023-12-07T11:44:25;2.17;99.99
80579;SHT31;69939;52.402;6.608;2023-12-07T11:47:04;2.25;99.99
80579;SHT31;69939;52.402;6.608;2023-12-07T11:49:35;2.37;99.99
80579;SHT31;69939;52.402;6.608;2023-12-07T11:52:15;2.45;99.99
80579;SHT31;69939;52.402;6.608;2023-12-07T11:54:45;2.50;99.99
80579;SHT31;69939;52.402;6.608;2023-12-07T11:57:16;2.50;99.99
80579;SHT31;69939;52.402;6.608;2023-12-07T11:59:46;2.49;99.99
80579;SHT31;69939;52.402;6.608;2023-12-07T12:02:19;2.42;99.99
80579;SHT31;69939;52.402;6.608;2023-12-07T12:04:49;2.50;99.99
80579;SHT31;69939;52.402;6.608;2023-12-07T12:07:19;2.52;99.99
80579;SHT31;69939;52.402;6.608;2023-12-07T12:09:51;2.52;99.99
80579;SHT31;69939;52.402;6.608;2023-12-07T12:12:20;2.49;99.99
80579;SHT31;69939;52.402;6.608;2023-12-07T12:14:49;2.42;99.99
80579;SHT31;69939;52.402;6.608;2023-12-07T12:17:22;2.60;99.99
80579;SHT31;69939;52.402;6.608;2023-12-07T12:19:52;2.57;99.99
80579;SHT31;69939;52.402;6.608;2023-12-07T12:22:21;2.61;99.99
80579;SHT31;69939;52.402;6.608;2023-12-07T12:24:58;2.66;99.99
80579;SHT31;69939;52.402;6.608;2023-12-07T12:27:28;2.63;99.99
80579;SHT31;69939;52.402;6.608;2023-12-07T12:29:59;2.53;99.99
80579;SHT31;69939;52.402;6.608;2023-12-07T12:32:41;2.61;99.99
80579;SHT31;69939;52.402;6.608;2023-12-07T12:35:11;2.70;99.99
80579;SHT31;69939;52.402;6.608;2023-12-07T12:37:42;2.72;99.99
80579;SHT31;69939;52.402;6.608;2023-12-07T12:40:16;2.63;99.99
80579;SHT31;69939;52.402;6.608;2023-12-07T12:42:49;2.76;99.99
80579;SHT31;69939;52.402;6.608;2023-12-07T12:45:19;2.81;99.99
80579;SHT31;69939;52.402;6.608;2023-12-07T12:47:48;2.91;99.99
80579;SHT31;69939;52.402;6.608;2023-12-07T12:50:33;2.95;99.99
80579;SHT31;69939;52.402;6.608;2023-12-07T12:53:06;3.03;99.99
80579;SHT31;69939;52.402;6.608;2023-12-07T12:55:41;3.12;99.99
80579;SHT31;69939;52.402;6.608;2023-12-07T12:58:16;3.08;99.99
80579;SHT31;69939;52.402;6.608;2023-12-07T13:00:47;3.14;99.99
80579;SHT31;69939;52.402;6.608;2023-12-07T13:03:21;3.19;99.99
80579;SHT31;69939;52.402;6.608;2023-12-07T13:05:50;3.28;99.99
80579;SHT31;69939;52.402;6.608;2023-12-07T13:08:25;3.31;99.99
80579;SHT31;69939;52.402;6.608;2023-12-07T13:10:55;3.32;99.86
80579;SHT31;69939;52.402;6.608;2023-12-07T13:13:24;3.25;99.57
80579;SHT31;69939;52.402;6.608;2023-12-07T13:15:53;3.25;99.59
80579;SHT31;69939;52.402;6.608;2023-12-07T13:18:23;3.22;99.49
80579;SHT31;69939;52.402;6.608;2023-12-07T13:20:52;3.04;98.81
80579;SHT31;69939;52.402;6.608;2023-12-07T13:23:22;3.08;99.54
80579;SHT31;69939;52.402;6.608;2023-12-07T13:25:54;3.07;99.50
80579;SHT31;69939;52.402;6.608;2023-12-07T13:28:23;3.09;99.33
80579;SHT31;69939;52.402;6.608;2023-12-07T13:30:52;3.11;99.67
80579;SHT31;69939;52.402;6.608;2023-12-07T13:33:22;3.09;99.46
80579;SHT31;69939;52.402;6.608;2023-12-07T13:35:51;3.15;99.47
80579;SHT31;69939;52.402;6.608;2023-12-07T13:38:21;3.18;99.47
80579;SHT31;69939;52.402;6.608;2023-12-07T13:40:53;3.19;99.39
80579;SHT31;69939;52.402;6.608;2023-12-07T13:43:23;3.21;99.70
80579;SHT31;69939;52.402;6.608;2023-12-07T13:45:53;3.18;99.25
80579;SHT31;69939;52.402;6.608;2023-12-07T13:48:22;3.21;99.54
80579;SHT31;69939;52.402;6.608;2023-12-07T13:50:52;3.24;99.75
80579;SHT31;69939;52.402;6.608;2023-12-07T13:53:21;3.28;99.67
80579;SHT31;69939;52.402;6.608;2023-12-07T13:55:53;3.28;99.42
80579;SHT31;69939;52.402;6.608;2023-12-07T13:58:23;3.25;99.43
80579;SHT31;69939;52.402;6.608;2023-12-07T14:00:52;3.26;99.57
80579;SHT31;69939;52.402;6.608;2023-12-07T14:03:22;3.28;99.49
80579;SHT31;69939;52.402;6.608;2023-12-07T14:05:51;3.19;99.25
80579;SHT31;69939;52.402;6.608;2023-12-07T14:08:21;3.28;98.94
80579;SHT31;69939;52.402;6.608;2023-12-07T14:10:57;3.26;98.72
80579;SHT31;69939;52.402;6.608;2023-12-07T14:13:26;3.24;98.29
80579;SHT31;69939;52.402;6.608;2023-12-07T14:15:55;3.24;98.10
80579;SHT31;69939;52.402;6.608;2023-12-07T14:18:25;3.24;98.51
80579;SHT31;69939;52.402;6.608;2023-12-07T14:20:54;3.25;98.28
80579;SHT31;69939;52.402;6.608;2023-12-07T14:23:24;3.26;98.39
80579;SHT31;69939;52.402;6.608;2023-12-07T14:25:56;3.29;98.51
80579;SHT31;69939;52.402;6.608;2023-12-07T14:28:28;3.29;98.38
80579;SHT31;69939;52.402;6.608;2023-12-07T14:30:59;3.29;98.09
80579;SHT31;69939;52.402;6.608;2023-12-07T14:33:29;3.33;98.60
80579;SHT31;69939;52.402;6.608;2023-12-07T14:35:59;3.36;98.41
80579;SHT31;69939;52.402;6.608;2023-12-07T14:38:29;3.32;98.15
80579;SHT31;69939;52.402;6.608;2023-12-07T14:41:02;3.33;98.11
80579;SHT31;69939;52.402;6.608;2023-12-07T14:43:32;3.35;98.19
80579;SHT31;69939;52.402;6.608;2023-12-07T14:46:02;3.35;98.19
80579;SHT31;69939;52.402;6.608;2023-12-07T14:48:32;3.39;98.28
80579;SHT31;69939;52.402;6.608;2023-12-07T14:51:03;3.40;98.46
80579;SHT31;69939;52.402;6.608;2023-12-07T14:53:33;3.42;98.43
80579;SHT31;69939;52.402;6.608;2023-12-07T14:56:05;3.40;98.42
80579;SHT31;69939;52.402;6.608;2023-12-07T14:58:35;3.40;98.36
80579;SHT31;69939;52.402;6.608;2023-12-07T15:01:05;3.38;98.48
80579;SHT31;69939;52.402;6.608;2023-12-07T15:03:34;3.35;98.35
80579;SHT31;69939;52.402;6.608;2023-12-07T15:06:04;3.32;98.45
80579;SHT31;69939;52.402;6.608;2023-12-07T15:08:34;3.28;98.44
80579;SHT31;69939;52.402;6.608;2023-12-07T15:11:07;3.24;98.66
80579;SHT31;69939;52.402;6.608;2023-12-07T15:13:36;3.25;98.77
80579;SHT31;69939;52.402;6.608;2023-12-07T15:16:07;3.25;98.84
80579;SHT31;69939;52.402;6.608;2023-12-07T15:18:38;3.25;98.88
80579;SHT31;69939;52.402;6.608;2023-12-07T15:21:11;3.28;98.88
80579;SHT31;69939;52.402;6.608;2023-12-07T15:23:41;3.28;98.87
80579;SHT31;69939;52.402;6.608;2023-12-07T15:26:14;3.26;98.90
80579;SHT31;69939;52.402;6.608;2023-12-07T15:28:45;3.25;98.83
80579;SHT31;69939;52.402;6.608;2023-12-07T15:31:14;3.28;98.82
80579;SHT31;69939;52.402;6.608;2023-12-07T15:33:44;3.24;98.87
80579;SHT31;69939;52.402;6.608;2023-12-07T15:36:13;3.25;98.93
80579;SHT31;69939;52.402;6.608;2023-12-07T15:38:43;3.26;98.84
80579;SHT31;69939;52.402;6.608;2023-12-07T15:41:15;3.22;98.84
80579;SHT31;69939;52.402;6.608;2023-12-07T15:43:44;3.21;98.73
80579;SHT31;69939;52.402;6.608;2023-12-07T15:46:14;3.15;98.80
80579;SHT31;69939;52.402;6.608;2023-12-07T15:48:43;3.12;98.74
80579;SHT31;69939;52.402;6.608;2023-12-07T15:51:13;3.08;98.79
80579;SHT31;69939;52.402;6.608;2023-12-07T15:53:42;3.04;98.78
80579;SHT31;69939;52.402;6.608;2023-12-07T15:56:14;3.01;98.88
80579;SHT31;69939;52.402;6.608;2023-12-07T15:58:49;3.00;98.88
80579;SHT31;69939;52.402;6.608;2023-12-07T16:01:19;2.91;98.75
80579;SHT31;69939;52.402;6.608;2023-12-07T16:03:50;2.87;98.86
80579;SHT31;69939;52.402;6.608;2023-12-07T16:06:20;2.79;98.88